createdAt,value
2018-01-31T01:53:22.101Z,941.2
2018-01-31T01:54:53.612Z,941.2
2018-01-31T01:56:10.360Z,941.2
2018-01-31T01:57:17.223Z,941.2
2018-01-31T01:58:24.679Z,941.1
2018-01-31T01:59:30.010Z,941.1
2018-01-31T02:00:38.454Z,941.2
2018-01-31T02:01:43.339Z,941.1
2018-01-31T02:02:47.904Z,941.1
2018-01-31T02:03:51.367Z,936.6
2018-01-31T02:04:55.827Z,941
2018-01-31T02:06:05.329Z,941.2
2018-01-31T02:07:25.720Z,941
2018-01-31T02:08:34.016Z,941.1
2018-01-31T02:09:41.928Z,941
2018-01-31T02:10:51.028Z,941
2018-01-31T02:11:55.109Z,941
2018-01-31T02:13:00.672Z,941
2018-01-31T02:14:07.958Z,940.9
2018-01-31T02:15:13.623Z,936.8
2018-01-31T02:16:20.247Z,940.9
2018-01-31T02:17:27.865Z,940.9
2018-01-31T02:19:09.369Z,940.9
2018-01-31T02:20:16.388Z,940.8
2018-01-31T02:21:23.627Z,940.8
2018-01-31T02:22:29.528Z,940.8
2018-01-31T02:23:35.040Z,940.8
2018-01-31T02:24:40.707Z,940.7
2018-01-31T02:25:46.870Z,940.7
2018-01-31T02:26:51.412Z,940.7
2018-01-31T02:27:56.812Z,940.7
2018-01-31T02:29:04.020Z,940.7
2018-01-31T02:30:16.033Z,940.8
2018-01-31T02:31:19.988Z,940.7
2018-01-31T02:32:25.090Z,940.7
2018-01-31T02:33:29.134Z,940.7
2018-01-31T02:34:34.334Z,940.7
2018-01-31T02:35:39.451Z,940.7
2018-01-31T02:36:45.859Z,940.8
2018-01-31T02:37:51.840Z,940.7
2018-01-31T02:39:01.261Z,940.7
2018-01-31T02:40:07.607Z,940.6
2018-01-31T02:41:17.068Z,940.6
2018-01-31T02:42:22.140Z,940.7
2018-01-31T02:43:29.427Z,940.7
2018-01-31T02:44:33.462Z,940.6
2018-01-31T02:45:38.306Z,940.7
2018-01-31T02:46:43.622Z,940.6
2018-01-31T02:47:50.057Z,940.6
2018-01-31T02:48:55.434Z,940.6
2018-01-31T02:50:03.353Z,940.7
2018-01-31T02:51:08.124Z,940.7
2018-01-31T02:52:16.227Z,940.7
2018-01-31T02:53:22.104Z,940.6
2018-01-31T02:54:29.527Z,940.7
2018-01-31T02:55:35.001Z,940.6
2018-01-31T02:56:44.321Z,940.6
2018-01-31T02:57:52.068Z,940.7
2018-01-31T02:58:56.741Z,940.7
2018-01-31T03:00:03.093Z,940.7
2018-01-31T03:01:09.421Z,940.5
2018-01-31T03:02:16.317Z,940.6
2018-01-31T03:03:33.759Z,940.6
2018-01-31T03:04:38.795Z,940.6
2018-01-31T03:05:44.019Z,940.6
2018-01-31T03:06:52.394Z,940.7
2018-01-31T03:08:00.359Z,940.6
2018-01-31T03:09:05.579Z,940.6
2018-01-31T03:10:13.834Z,940.6
2018-01-31T03:11:21.962Z,940.6
2018-01-31T03:12:26.359Z,940.5
2018-01-31T03:13:31.959Z,940.6
2018-01-31T03:14:46.177Z,940.6
2018-01-31T03:15:50.700Z,940.6
2018-01-31T03:16:54.201Z,940.6
2018-01-31T03:17:59.201Z,940.6
2018-01-31T03:19:09.283Z,940.6
2018-01-31T03:20:14.806Z,940.5
2018-01-31T03:21:19.658Z,940.7
2018-01-31T03:22:26.397Z,940.6
2018-01-31T03:23:35.646Z,940.7
2018-01-31T03:24:43.445Z,940.6
2018-01-31T03:26:00.454Z,940.6
2018-01-31T03:27:07.168Z,940.6
2018-01-31T03:28:16.370Z,940.6
2018-01-31T03:29:23.304Z,940.6
2018-01-31T03:30:28.783Z,940.6
2018-01-31T03:31:37.451Z,940.6
2018-01-31T03:32:41.049Z,940.6
2018-01-31T03:33:46.758Z,940.6
2018-01-31T03:34:53.098Z,940.6
2018-01-31T03:36:00.423Z,940.6
2018-01-31T03:37:16.446Z,940.5
2018-01-31T03:38:25.223Z,940.5
2018-01-31T03:39:31.435Z,940.6
2018-01-31T03:40:38.224Z,940.6
2018-01-31T03:41:47.808Z,940.6
2018-01-31T03:42:53.616Z,940.5
2018-01-31T03:44:00.683Z,940.5
2018-01-31T03:45:08.550Z,940.5
2018-01-31T03:46:15.540Z,940.4
2018-01-31T03:47:20.258Z,940.5
2018-01-31T03:48:31.822Z,940.5
2018-01-31T03:49:37.754Z,940.5
2018-01-31T03:50:45.985Z,940.5
2018-01-31T03:51:51.454Z,940.4
2018-01-31T03:52:58.728Z,940.4
2018-01-31T03:54:06.465Z,940.4
2018-01-31T03:55:12.987Z,940.4
2018-01-31T03:56:22.248Z,940.4
2018-01-31T03:57:28.857Z,940.3
2018-01-31T03:58:35.581Z,940.4
2018-01-31T04:00:17.586Z,940.4
2018-01-31T04:01:25.039Z,940.4
2018-01-31T04:02:32.095Z,940.4
2018-01-31T04:03:40.661Z,940.4
2018-01-31T04:04:48.690Z,940.4
2018-01-31T04:05:56.015Z,940.3
2018-01-31T04:07:03.216Z,940.3
2018-01-31T04:08:11.044Z,940.3
2018-01-31T04:09:17.012Z,940.3
2018-01-31T04:10:25.126Z,940.4
2018-01-31T04:11:41.660Z,940.4
2018-01-31T04:12:51.800Z,940.3
2018-01-31T04:13:59.187Z,940.2
2018-01-31T04:15:04.803Z,940.2
2018-01-31T04:16:12.442Z,940.2
2018-01-31T04:17:18.699Z,940.2
2018-01-31T04:18:28.187Z,938.2
2018-01-31T04:19:34.535Z,940.2
2018-01-31T04:20:46.035Z,940.2
2018-01-31T04:22:02.190Z,940.2
2018-01-31T04:23:54.292Z,940.2
2018-01-31T04:25:00.498Z,940.2
2018-01-31T04:26:07.355Z,940.1
2018-01-31T04:27:18.485Z,940.2
2018-01-31T04:28:24.679Z,940.2
2018-01-31T04:29:34.341Z,940.2
2018-01-31T04:30:42.599Z,940.2
2018-01-31T04:31:53.448Z,940.1
2018-01-31T04:33:03.922Z,940.2
2018-01-31T04:34:10.840Z,936
2018-01-31T04:35:25.440Z,940.1
2018-01-31T04:36:28.747Z,940.1
2018-01-31T04:37:36.537Z,940.1
2018-01-31T04:38:43.552Z,940
2018-01-31T04:39:50.353Z,940.1
2018-01-31T04:41:06.017Z,940.1
2018-01-31T04:42:15.168Z,940.1
2018-01-31T04:43:22.929Z,940.1
2018-01-31T04:44:32.066Z,940
2018-01-31T04:45:40.629Z,940
2018-01-31T04:46:54.456Z,939.9
2018-01-31T04:48:02.445Z,940
2018-01-31T04:49:06.786Z,940
2018-01-31T04:50:15.586Z,939.9
2018-01-31T04:51:21.984Z,940
2018-01-31T04:52:27.892Z,939.9
2018-01-31T04:53:33.819Z,940
2018-01-31T04:54:43.609Z,939.9
2018-01-31T04:55:49.134Z,939.9
2018-01-31T04:56:53.867Z,939.8
2018-01-31T04:58:42.010Z,939.8
2018-01-31T04:59:46.713Z,935.5
2018-01-31T05:00:52.930Z,939.8
2018-01-31T05:01:56.252Z,939.8
2018-01-31T05:03:01.172Z,939.8
2018-01-31T05:04:06.661Z,939.7
2018-01-31T05:05:12.135Z,939.8
2018-01-31T05:06:16.163Z,939.8
2018-01-31T05:07:21.219Z,939.8
2018-01-31T05:08:25.160Z,939.8
2018-01-31T05:09:34.466Z,939.7
2018-01-31T05:10:40.487Z,939.8
2018-01-31T05:11:46.885Z,939.7
2018-01-31T05:12:53.139Z,939.8
2018-01-31T05:14:00.297Z,939.7
2018-01-31T05:15:07.992Z,939.8
2018-01-31T05:16:12.156Z,939.7
2018-01-31T05:17:16.115Z,939.7
2018-01-31T05:18:22.605Z,939.7
2018-01-31T05:19:27.525Z,939.7
2018-01-31T05:20:38.695Z,939.7
2018-01-31T05:21:43.545Z,939.8
2018-01-31T05:22:49.425Z,939.7
2018-01-31T05:23:55.223Z,939.7
2018-01-31T05:25:02.535Z,939.7
2018-01-31T05:26:09.620Z,939.7
2018-01-31T05:27:14.206Z,939.7
2018-01-31T05:28:20.778Z,939.6
2018-01-31T05:29:27.879Z,939.6
2018-01-31T05:30:32.006Z,939.6
2018-01-31T05:31:44.983Z,939.7
2018-01-31T05:32:52.495Z,939.7
2018-01-31T05:33:59.750Z,939.6
2018-01-31T05:35:09.425Z,939.6
2018-01-31T05:36:14.850Z,939.6
2018-01-31T05:37:22.761Z,939.6
2018-01-31T05:38:27.547Z,939.6
2018-01-31T05:39:35.205Z,939.6
2018-01-31T05:40:40.896Z,939.7
2018-01-31T05:41:47.726Z,939.7
2018-01-31T05:42:59.887Z,939.6
2018-01-31T05:44:08.113Z,939.6
2018-01-31T05:45:16.261Z,939.6
2018-01-31T05:46:27.113Z,939.6
2018-01-31T05:47:32.982Z,939.5
2018-01-31T05:48:43.961Z,939.5
2018-01-31T05:49:50.901Z,939.5
2018-01-31T05:50:59.163Z,939.5
2018-01-31T05:52:07.888Z,939.5
2018-01-31T05:53:14.641Z,939.4
2018-01-31T05:55:00.054Z,939.6
2018-01-31T05:56:06.766Z,939.4
2018-01-31T05:57:16.554Z,939.4
2018-01-31T05:58:23.315Z,939.4
2018-01-31T05:59:30.762Z,939.4
2018-01-31T06:00:37.128Z,939.4
2018-01-31T06:01:45.397Z,939.4
2018-01-31T06:02:54.702Z,939.4
2018-01-31T06:03:59.793Z,939.3
2018-01-31T06:05:05.713Z,939.4
2018-01-31T06:06:18.238Z,939.4
2018-01-31T06:07:27.468Z,939.3
2018-01-31T06:08:32.812Z,939.3
2018-01-31T06:09:42.282Z,939.2
2018-01-31T06:10:52.106Z,939.2
2018-01-31T06:12:00.585Z,939.3
2018-01-31T06:13:09.013Z,939.2
2018-01-31T06:14:14.620Z,939.2
2018-01-31T06:15:25.043Z,939.2
2018-01-31T06:16:34.257Z,939.2
2018-01-31T06:17:52.677Z,939.2
2018-01-31T06:19:02.317Z,939.3
2018-01-31T06:20:09.444Z,935
2018-01-31T06:21:17.767Z,939.2
2018-01-31T06:22:23.740Z,939.1
2018-01-31T06:23:31.825Z,939.2
2018-01-31T06:24:39.660Z,939.1
2018-01-31T06:25:45.800Z,939.2
2018-01-31T06:26:54.157Z,939.2
2018-01-31T06:28:01.827Z,939.1
2018-01-31T06:29:18.124Z,939.2
2018-01-31T06:30:23.897Z,939.2
2018-01-31T06:31:31.325Z,939.1
2018-01-31T06:32:39.090Z,939.2
2018-01-31T06:33:48.880Z,939.1
2018-01-31T06:34:57.379Z,939.1
2018-01-31T06:36:08.544Z,939.1
2018-01-31T06:37:15.382Z,939.1
2018-01-31T06:38:25.559Z,939.2
2018-01-31T06:39:31.223Z,939.1
2018-01-31T06:40:56.135Z,939.2
2018-01-31T06:42:04.522Z,935.7
2018-01-31T06:43:08.966Z,939
2018-01-31T06:44:18.476Z,939.2
2018-01-31T06:45:23.971Z,939.2
2018-01-31T06:46:31.367Z,939.1
2018-01-31T06:47:38.527Z,939.1
2018-01-31T06:48:45.425Z,939.1
2018-01-31T06:49:54.339Z,939.1
2018-01-31T06:51:03.194Z,939.1
2018-01-31T06:52:19.475Z,939
2018-01-31T06:53:26.698Z,939
2018-01-31T06:54:36.521Z,939
2018-01-31T06:55:45.122Z,939.1
2018-01-31T06:56:53.984Z,939.1
2018-01-31T06:57:59.744Z,939
2018-01-31T06:59:05.927Z,939
2018-01-31T07:00:16.397Z,939
2018-01-31T07:01:23.425Z,939
2018-01-31T07:02:29.399Z,938.9
2018-01-31T07:03:42.952Z,934.9
2018-01-31T07:04:49.620Z,939
2018-01-31T07:05:57.959Z,938.9
2018-01-31T07:07:06.454Z,938.9
2018-01-31T07:08:13.781Z,938.9
2018-01-31T07:09:21.805Z,938.9
2018-01-31T07:10:29.021Z,938.8
2018-01-31T07:11:38.930Z,938.9
2018-01-31T07:12:47.192Z,938.8
2018-01-31T07:13:53.970Z,938.8
2018-01-31T07:15:08.377Z,938.9
2018-01-31T07:16:14.914Z,938.7
2018-01-31T07:17:20.982Z,938.7
2018-01-31T07:18:29.505Z,938.7
2018-01-31T07:19:36.951Z,938.7
2018-01-31T07:20:44.408Z,938.7
2018-01-31T07:21:50.233Z,938.5
2018-01-31T07:22:57.801Z,938.6
2018-01-31T07:24:06.586Z,938.6
2018-01-31T07:25:12.694Z,938.6
2018-01-31T07:26:57.958Z,938.6
2018-01-31T07:28:01.410Z,938.6
2018-01-31T07:29:06.738Z,938.6
2018-01-31T07:30:11.879Z,938.5
2018-01-31T07:31:16.956Z,938.5
2018-01-31T07:32:24.091Z,938.5
2018-01-31T07:33:30.739Z,938.3
2018-01-31T07:34:36.879Z,938.5
2018-01-31T07:35:43.020Z,938.4
2018-01-31T07:36:48.507Z,938.5
2018-01-31T07:38:03.261Z,938.5
2018-01-31T07:39:07.573Z,938.4
2018-01-31T07:40:15.188Z,938.5
2018-01-31T07:41:21.123Z,938.4
2018-01-31T07:42:26.667Z,938.5
2018-01-31T07:43:30.947Z,938.4
2018-01-31T07:44:38.553Z,938.4
2018-01-31T07:45:47.069Z,938.4
2018-01-31T07:46:51.951Z,938.4
2018-01-31T07:47:56.862Z,938.3
2018-01-31T07:49:12.110Z,938.4
2018-01-31T07:50:21.047Z,938.3
2018-01-31T07:51:29.594Z,938.4
2018-01-31T07:52:34.502Z,938.3
2018-01-31T07:53:38.440Z,938.2
2018-01-31T07:54:42.431Z,938.2
2018-01-31T07:55:46.693Z,938.2
2018-01-31T07:56:51.588Z,938.2
2018-01-31T07:57:58.122Z,938.2
2018-01-31T07:59:03.896Z,938.1
2018-01-31T08:00:12.937Z,938.1
2018-01-31T08:01:19.234Z,938
2018-01-31T08:02:23.307Z,938
2018-01-31T08:03:28.062Z,938
2018-01-31T08:04:34.415Z,938
2018-01-31T08:05:38.927Z,937.9
2018-01-31T08:06:44.392Z,938
2018-01-31T08:07:48.388Z,937.9
2018-01-31T08:08:53.228Z,938
2018-01-31T08:09:57.961Z,937.4
2018-01-31T08:11:09.756Z,937.8
2018-01-31T08:12:13.395Z,937.8
2018-01-31T08:13:16.958Z,937.8
2018-01-31T08:14:23.127Z,937.7
2018-01-31T08:15:31.401Z,937.8
2018-01-31T08:16:35.828Z,937.8
2018-01-31T08:17:42.121Z,937.7
2018-01-31T08:18:48.125Z,937.7
2018-01-31T08:19:52.890Z,937.8
2018-01-31T08:20:57.522Z,937.7
2018-01-31T08:22:15.876Z,937.7
2018-01-31T08:23:21.249Z,937.6
2018-01-31T08:24:25.321Z,937.7
2018-01-31T08:25:29.509Z,937.6
2018-01-31T08:26:35.433Z,937.7
2018-01-31T08:27:40.847Z,937.6
2018-01-31T08:28:49.582Z,937.7
2018-01-31T08:29:58.297Z,937.6
2018-01-31T08:31:02.188Z,937.6
2018-01-31T08:32:11.890Z,937.6
2018-01-31T08:33:29.074Z,932.5
2018-01-31T08:34:36.307Z,937.6
2018-01-31T08:35:45.456Z,937.5
2018-01-31T08:36:52.092Z,937.6
2018-01-31T08:38:03.013Z,937.6
2018-01-31T08:39:07.638Z,937.6
2018-01-31T08:40:20.547Z,937.5
2018-01-31T08:41:29.754Z,937.6
2018-01-31T08:42:38.523Z,933.4
2018-01-31T08:43:46.921Z,937.5
2018-01-31T08:45:04.116Z,937.5
2018-01-31T08:46:13.535Z,937.5
2018-01-31T08:47:23.612Z,937.4
2018-01-31T08:48:35.849Z,937.4
2018-01-31T08:49:42.890Z,937.5
2018-01-31T08:50:52.420Z,937.5
2018-01-31T08:52:01.911Z,937.5
2018-01-31T08:53:09.393Z,937.5
2018-01-31T08:54:18.533Z,937.4
2018-01-31T08:55:27.279Z,937.4
2018-01-31T08:56:50.286Z,937.3
2018-01-31T08:57:58.816Z,937.3
2018-01-31T08:59:09.486Z,937.3
2018-01-31T09:00:15.522Z,937.4
2018-01-31T09:01:22.901Z,937.3
2018-01-31T09:02:38.492Z,937.3
2018-01-31T09:03:48.634Z,937.2
2018-01-31T09:04:54.718Z,937.3
2018-01-31T09:06:05.101Z,937.2
2018-01-31T09:07:14.180Z,937.3
2018-01-31T09:08:29.436Z,937.3
2018-01-31T09:09:36.479Z,937.3
2018-01-31T09:10:43.352Z,937.2
2018-01-31T09:11:52.373Z,937.2
2018-01-31T09:12:58.323Z,937.3
2018-01-31T09:14:04.628Z,937.2
2018-01-31T09:15:13.130Z,937
2018-01-31T09:16:30.882Z,937.2
2018-01-31T09:17:37.538Z,937.3
2018-01-31T09:18:46.789Z,937.2
2018-01-31T09:20:01.528Z,937.2
2018-01-31T09:21:12.408Z,937.1
2018-01-31T09:22:21.615Z,937.2
2018-01-31T09:23:30.738Z,937.2
2018-01-31T09:24:36.763Z,937
2018-01-31T09:25:47.260Z,937.1
2018-01-31T09:26:54.928Z,937.1
2018-01-31T09:28:04.045Z,937
2018-01-31T09:29:11.128Z,936.9
2018-01-31T09:30:19.029Z,936.9
2018-01-31T09:31:31.212Z,936.9
2018-01-31T09:32:39.335Z,936.8
2018-01-31T09:33:48.101Z,936.9
2018-01-31T09:34:54.058Z,936.8
2018-01-31T09:36:04.277Z,936.8
2018-01-31T09:37:11.492Z,936.8
2018-01-31T09:38:18.188Z,936.8
2018-01-31T09:39:27.453Z,936.7
2018-01-31T09:40:36.620Z,936.7
2018-01-31T09:41:42.695Z,936.7
2018-01-31T09:42:56.143Z,936.7
2018-01-31T09:44:04.438Z,936.6
2018-01-31T09:45:13.743Z,936.6
2018-01-31T09:46:19.557Z,936.6
2018-01-31T09:47:30.213Z,936.6
2018-01-31T09:48:35.753Z,936.5
2018-01-31T09:49:41.478Z,936.5
2018-01-31T09:50:47.114Z,936.5
2018-01-31T09:51:56.419Z,936.6
2018-01-31T09:53:02.531Z,936.5
2018-01-31T09:54:13.170Z,933.4
2018-01-31T09:55:17.264Z,936.4
2018-01-31T09:56:22.132Z,936.4
2018-01-31T09:57:25.517Z,936.4
2018-01-31T09:58:29.529Z,936.5
2018-01-31T09:59:35.366Z,936.4
2018-01-31T10:00:39.506Z,936.4
2018-01-31T10:01:45.194Z,936.5
2018-01-31T10:02:49.157Z,936.4
2018-01-31T10:03:53.294Z,936.4
2018-01-31T10:05:01.070Z,936.4
2018-01-31T10:06:05.112Z,936.3
2018-01-31T10:07:08.681Z,936.4
2018-01-31T10:08:13.076Z,936.3
2018-01-31T10:09:17.261Z,936.3
2018-01-31T10:10:22.003Z,936.3
2018-01-31T10:11:27.819Z,936.2
2018-01-31T10:12:31.293Z,936.2
2018-01-31T10:13:36.178Z,936.1
2018-01-31T10:14:40.736Z,936.2
2018-01-31T10:16:24.611Z,936.1
2018-01-31T10:17:30.643Z,936.1
2018-01-31T10:18:36.136Z,936
2018-01-31T10:19:40.123Z,936
2018-01-31T10:20:45.925Z,935.9
2018-01-31T10:21:50.227Z,935.9
2018-01-31T10:22:56.627Z,935.8
2018-01-31T10:24:00.796Z,935.8
2018-01-31T10:25:06.440Z,935.8
2018-01-31T10:26:12.431Z,935.8
2018-01-31T10:29:02.198Z,935.7
2018-01-31T10:30:08.636Z,935.7
2018-01-31T10:31:15.153Z,935.7
2018-01-31T10:32:19.032Z,935.6
2018-01-31T10:33:25.709Z,935.6
2018-01-31T10:34:30.696Z,935.5
2018-01-31T10:35:35.941Z,935.5
2018-01-31T10:36:42.998Z,935.4
2018-01-31T10:37:48.748Z,935.4
2018-01-31T10:38:56.312Z,935.4
2018-01-31T10:40:08.041Z,935.3
2018-01-31T10:41:14.265Z,935.3
2018-01-31T10:42:19.815Z,935.4
2018-01-31T10:43:28.454Z,935.3
2018-01-31T10:44:35.848Z,935.3
2018-01-31T10:45:42.073Z,935.3
2018-01-31T10:46:48.518Z,935.2
2018-01-31T10:47:53.125Z,935.2
2018-01-31T10:48:58.638Z,935.1
2018-01-31T10:50:03.932Z,935.2
2018-01-31T10:51:18.902Z,935
2018-01-31T10:52:24.313Z,935.1
2018-01-31T10:53:32.142Z,935
2018-01-31T10:57:29.075Z,934.9
2018-01-31T10:58:14.712Z,934.8
2018-01-31T10:59:24.922Z,934.8
2018-01-31T11:00:34.951Z,934.8
2018-01-31T11:01:38.948Z,934.7
2018-01-31T11:02:48.926Z,934.7
2018-01-31T11:03:54.643Z,934.7
2018-01-31T11:05:03.532Z,934.7
2018-01-31T11:06:08.707Z,934.5
2018-01-31T11:07:14.660Z,934.5
2018-01-31T11:08:21.578Z,934.5
2018-01-31T11:09:27.706Z,934.6
2018-01-31T11:10:43.879Z,934.5
2018-01-31T11:11:52.136Z,934.4
2018-01-31T11:12:58.002Z,934.3
2018-01-31T11:14:03.240Z,934.4
2018-01-31T11:15:10.574Z,934.3
2018-01-31T11:16:20.693Z,934.3
2018-01-31T11:17:27.889Z,934.2
2018-01-31T11:18:32.850Z,934.2
2018-01-31T11:19:42.032Z,934.2
2018-01-31T11:20:49.425Z,934.2
2018-01-31T11:22:34.179Z,934
2018-01-31T11:23:39.482Z,934
2018-01-31T11:24:46.090Z,934
2018-01-31T11:25:54.142Z,933.9
2018-01-31T11:26:58.199Z,934
2018-01-31T11:28:06.461Z,933.8
2018-01-31T11:29:11.201Z,933.8
2018-01-31T11:30:18.246Z,933.8
2018-01-31T11:31:22.186Z,933.8
2018-01-31T11:32:28.272Z,933.7
2018-01-31T11:33:41.856Z,933.7
2018-01-31T11:34:49.438Z,933.7
2018-01-31T11:35:56.538Z,933.6
2018-01-31T11:37:03.053Z,933.6
2018-01-31T11:38:12.820Z,933.5
2018-01-31T11:39:20.293Z,933.6
2018-01-31T11:40:28.777Z,933.5
2018-01-31T11:41:36.791Z,933.5
2018-01-31T11:42:46.821Z,933.5
2018-01-31T11:43:53.418Z,933.5
2018-01-31T11:45:07.201Z,933.5
2018-01-31T11:46:14.852Z,933.4
2018-01-31T11:47:21.816Z,933.3
2018-01-31T11:48:26.648Z,933.3
2018-01-31T11:49:33.487Z,933.3
2018-01-31T11:50:42.073Z,933.2
2018-01-31T11:51:49.456Z,933.2
2018-01-31T11:52:56.052Z,933.2
2018-01-31T11:54:00.684Z,933.1
2018-01-31T11:55:09.022Z,933.1
2018-01-31T11:56:21.870Z,933.1
2018-01-31T11:57:26.905Z,933
2018-01-31T11:58:31.805Z,933
2018-01-31T11:59:37.683Z,933
2018-01-31T12:00:44.094Z,933
2018-01-31T12:01:47.318Z,932.9
2018-01-31T12:02:53.085Z,932.9
2018-01-31T12:03:57.497Z,932.9
2018-01-31T12:05:02.554Z,932.9
2018-01-31T12:06:07.136Z,932.9
2018-01-31T12:07:15.661Z,932.9
2018-01-31T12:08:19.005Z,932.8
2018-01-31T12:09:22.309Z,932.8
2018-01-31T12:10:25.779Z,932.7
2018-01-31T12:11:30.949Z,932.6
2018-01-31T12:12:35.565Z,932.7
2018-01-31T12:13:39.515Z,932.6
2018-01-31T12:14:44.488Z,932.6
2018-01-31T12:15:48.667Z,932.6
2018-01-31T12:16:54.549Z,932.6
2018-01-31T12:18:04.135Z,932.6
2018-01-31T12:19:08.663Z,932.6
2018-01-31T12:20:12.746Z,932.6
2018-01-31T12:21:17.308Z,932.5
2018-01-31T12:22:23.367Z,932.6
2018-01-31T12:23:28.205Z,932.5
2018-01-31T12:24:34.042Z,932.5
2018-01-31T12:25:39.028Z,932.4
2018-01-31T12:26:43.655Z,932.5
2018-01-31T12:27:48.890Z,932.5
2018-01-31T12:28:59.438Z,932.5
2018-01-31T12:30:04.988Z,932.4
2018-01-31T12:31:12.328Z,932.3
2018-01-31T12:32:16.465Z,932.4
2018-01-31T12:33:21.118Z,932.3
2018-01-31T12:34:25.914Z,932.4
2018-01-31T12:35:31.093Z,932.3
2018-01-31T12:36:36.303Z,932.3
2018-01-31T12:37:42.905Z,932.3
2018-01-31T12:38:49.976Z,932.3
2018-01-31T12:40:37.127Z,932.1
2018-01-31T12:41:41.976Z,932.1
2018-01-31T12:42:46.590Z,932.1
2018-01-31T12:43:53.098Z,932.1
2018-01-31T12:44:59.020Z,932.1
2018-01-31T12:46:05.355Z,932.1
2018-01-31T12:47:10.239Z,932
2018-01-31T12:48:15.793Z,932
2018-01-31T12:49:22.296Z,932
2018-01-31T12:50:28.772Z,931.9
2018-01-31T12:51:41.287Z,932
2018-01-31T12:52:47.410Z,932
2018-01-31T12:53:53.483Z,932
2018-01-31T12:54:58.251Z,932
2018-01-31T12:56:05.583Z,931.9
2018-01-31T12:57:12.675Z,931.8
2018-01-31T12:58:17.827Z,931.8
2018-01-31T12:59:33.226Z,931.8
2018-01-31T13:00:42.405Z,931.8
2018-01-31T13:01:51.325Z,931.8
2018-01-31T13:03:04.367Z,931.8
2018-01-31T13:04:09.644Z,931.9
2018-01-31T13:05:16.043Z,931.8
2018-01-31T13:06:23.675Z,931.8
2018-01-31T13:07:29.725Z,931.8
2018-01-31T13:08:37.225Z,931.7
2018-01-31T13:09:43.587Z,931.7
2018-01-31T13:10:49.254Z,931.7
2018-01-31T13:11:55.518Z,931.7
2018-01-31T13:13:03.113Z,931.8
2018-01-31T13:14:15.977Z,931.8
2018-01-31T13:15:24.228Z,931.7
2018-01-31T13:16:33.563Z,931.6
2018-01-31T13:17:40.799Z,931.7
2018-01-31T13:18:49.415Z,931.6
2018-01-31T13:20:03.112Z,931.7
2018-01-31T13:21:14.150Z,929
2018-01-31T13:22:27.621Z,931.6
2018-01-31T13:23:35.027Z,931.5
2018-01-31T13:24:46.033Z,931.5
2018-01-31T13:25:57.517Z,931.5
2018-01-31T13:27:07.319Z,931.6
2018-01-31T13:28:19.485Z,931.5
2018-01-31T13:29:23.881Z,930.6
2018-01-31T13:30:30.472Z,931.4
2018-01-31T13:31:34.949Z,931.5
2018-01-31T13:32:39.902Z,931.4
2018-01-31T13:33:45.402Z,931.5
2018-01-31T13:34:50.934Z,931.4
2018-01-31T13:35:57.688Z,931.3
2018-01-31T13:37:05.583Z,931.3
2018-01-31T13:38:09.536Z,931.3
2018-01-31T13:39:13.180Z,931.2
2018-01-31T13:40:17.722Z,931.2
2018-01-31T13:41:21.143Z,931
2018-01-31T13:42:25.408Z,931.1
2018-01-31T13:43:29.656Z,931
2018-01-31T13:44:33.738Z,931
2018-01-31T13:45:37.227Z,931
2018-01-31T13:46:40.675Z,930.9
2018-01-31T13:48:20.705Z,930.9
2018-01-31T13:49:24.107Z,930.9
2018-01-31T13:50:29.237Z,930.9
2018-01-31T13:51:34.168Z,930.8
2018-01-31T13:52:38.338Z,930.8
2018-01-31T13:53:43.424Z,930.8
2018-01-31T13:54:49.606Z,930.9
2018-01-31T13:55:55.606Z,930.8
2018-01-31T13:57:01.653Z,930.8
2018-01-31T13:58:05.841Z,930.7
2018-01-31T13:59:13.861Z,930.7
2018-01-31T14:00:18.358Z,930.6
2018-01-31T14:01:22.651Z,930.5
2018-01-31T14:02:27.620Z,930.5
2018-01-31T14:03:32.448Z,930.5
2018-01-31T14:04:36.597Z,930.5
2018-01-31T14:05:42.698Z,930.6
2018-01-31T14:06:48.057Z,930.6
2018-01-31T14:07:52.013Z,930.6
2018-01-31T14:09:01.454Z,930.5
2018-01-31T14:10:11.665Z,930.5
2018-01-31T14:11:17.825Z,930.5
2018-01-31T14:12:22.988Z,930.5
2018-01-31T14:13:31.622Z,930.5
2018-01-31T14:14:36.247Z,930.5
2018-01-31T14:15:42.982Z,930.4
2018-01-31T14:16:49.893Z,930.5
2018-01-31T14:17:56.622Z,930.5
2018-01-31T14:19:07.749Z,930.5
2018-01-31T14:20:13.860Z,930.5
2018-01-31T14:22:00.872Z,930.4
2018-01-31T14:23:07.055Z,930.5
2018-01-31T14:24:14.682Z,930.5
2018-01-31T14:25:20.730Z,930.5
2018-01-31T14:26:26.508Z,930.5
2018-01-31T14:27:34.944Z,930.4
2018-01-31T14:28:42.608Z,930.5
2018-01-31T14:29:50.231Z,930.5
2018-01-31T14:30:58.452Z,930.3
2018-01-31T14:32:03.983Z,930.3
2018-01-31T14:33:21.741Z,930.3
2018-01-31T14:34:26.969Z,930.4
2018-01-31T14:35:35.047Z,930.4
2018-01-31T14:36:40.360Z,930.5
2018-01-31T14:37:47.251Z,930.5
2018-01-31T14:38:54.318Z,930.5
2018-01-31T14:40:03.080Z,930.5
2018-01-31T14:41:10.593Z,930.5
2018-01-31T14:42:18.571Z,930.5
2018-01-31T14:43:26.025Z,930.5
2018-01-31T14:45:46.263Z,930.5
2018-01-31T14:46:53.736Z,930.5
2018-01-31T14:47:58.602Z,930.5
2018-01-31T14:49:07.559Z,930.5
2018-01-31T14:50:13.591Z,930.4
2018-01-31T14:51:20.954Z,930.5
2018-01-31T14:52:29.239Z,930.4
2018-01-31T14:53:36.956Z,930.4
2018-01-31T14:54:42.012Z,930.4
2018-01-31T14:55:50.670Z,930.4
2018-01-31T14:57:06.888Z,930.3
2018-01-31T14:58:13.660Z,930.3
2018-01-31T14:59:21.116Z,930.3
2018-01-31T15:00:28.047Z,930.3
2018-01-31T15:01:38.751Z,930.3
2018-01-31T15:02:48.299Z,926.7
2018-01-31T15:03:53.131Z,930.2
2018-01-31T15:05:03.769Z,930.1
2018-01-31T15:06:12.173Z,930.2
2018-01-31T15:07:18.095Z,930.1
2018-01-31T15:08:32.230Z,930.2
2018-01-31T15:09:39.672Z,930.2
2018-01-31T15:10:46.517Z,930.1
2018-01-31T15:11:51.769Z,930.2
2018-01-31T15:12:57.190Z,930.2
2018-01-31T15:14:03.108Z,930
2018-01-31T15:15:08.857Z,926.4
2018-01-31T15:16:17.127Z,930.1
2018-01-31T15:17:24.658Z,930
2018-01-31T15:18:28.161Z,930
2018-01-31T15:19:41.084Z,929.9
2018-01-31T15:20:47.090Z,930
2018-01-31T15:21:52.470Z,930
2018-01-31T15:22:58.474Z,929.9
2018-01-31T15:24:03.482Z,929.9
2018-01-31T15:25:10.821Z,929.8
2018-01-31T15:26:15.492Z,929.9
2018-01-31T15:27:25.563Z,929.8
2018-01-31T15:28:31.824Z,929.7
2018-01-31T15:29:38.963Z,929.8
2018-01-31T15:30:49.262Z,929.7
2018-01-31T15:31:56.928Z,926.1
2018-01-31T15:33:04.126Z,929.7
2018-01-31T15:34:13.134Z,929.7
2018-01-31T15:35:18.812Z,929.6
2018-01-31T15:36:25.254Z,929.5
2018-01-31T15:37:30.658Z,929.5
2018-01-31T15:38:36.081Z,929.5
2018-01-31T15:39:41.526Z,929.3
2018-01-31T15:40:46.366Z,929.4
2018-01-31T15:41:55.729Z,929.4
2018-01-31T15:43:01.121Z,929.3
2018-01-31T15:44:08.726Z,929.3
2018-01-31T15:45:12.861Z,929.4
2018-01-31T15:46:16.302Z,929.2
2018-01-31T15:47:20.359Z,929.3
2018-01-31T15:48:25.005Z,929.2
2018-01-31T15:49:30.735Z,929.2
2018-01-31T15:50:34.354Z,929.1
2018-01-31T15:51:37.715Z,929
2018-01-31T15:52:45.841Z,929.1
2018-01-31T15:53:49.233Z,929
2018-01-31T15:54:54.281Z,929
2018-01-31T15:55:58.395Z,928.9
2018-01-31T15:57:01.937Z,929
2018-01-31T15:58:07.074Z,929
2018-01-31T15:59:12.066Z,927.5
2018-01-31T16:00:17.635Z,928.9
2018-01-31T16:01:21.692Z,928.9
2018-01-31T16:02:25.968Z,928.9
2018-01-31T16:03:33.021Z,928.9
2018-01-31T16:04:38.070Z,928.8
2018-01-31T16:05:42.600Z,928.8
2018-01-31T16:06:46.552Z,928.8
2018-01-31T16:07:50.956Z,928.8
2018-01-31T16:08:56.567Z,928.7
2018-01-31T16:10:01.158Z,928.7
2018-01-31T16:11:04.704Z,928.7
2018-01-31T16:12:08.185Z,928.7
2018-01-31T16:13:12.488Z,928.7
2018-01-31T16:14:20.133Z,928.7
2018-01-31T16:15:24.710Z,928.7
2018-01-31T16:16:28.601Z,928.7
2018-01-31T16:17:32.098Z,928.8
2018-01-31T16:18:36.645Z,928.7
2018-01-31T16:19:40.031Z,928.7
2018-01-31T16:20:45.421Z,928.7
2018-01-31T16:21:50.106Z,928.6
2018-01-31T16:22:53.486Z,928.7
2018-01-31T16:23:56.994Z,928.6
2018-01-31T16:25:05.359Z,928.7
2018-01-31T16:26:08.838Z,928.7
2018-01-31T16:27:12.218Z,924.5
2018-01-31T16:28:17.280Z,928.7
2018-01-31T16:29:21.037Z,928.8
2018-01-31T16:30:24.651Z,928.8
2018-01-31T16:31:29.922Z,928.8
2018-01-31T16:32:33.952Z,928.9
2018-01-31T16:33:38.054Z,928.9
2018-01-31T16:34:41.599Z,928.8
2018-01-31T16:35:49.565Z,925.1